createdAt,value
2022-08-10T00:01:54.381Z,100294.03
2022-08-10T00:04:24.626Z,100308.75
2022-08-10T00:06:54.735Z,100293.59
2022-08-10T00:09:24.164Z,100298.22
2022-08-10T00:11:52.193Z,100298.56
2022-08-10T00:14:21.104Z,100302.25
2022-08-10T00:16:49.254Z,100291.22
2022-08-10T00:19:18.297Z,100301.28
2022-08-10T00:21:47.488Z,100255.56
2022-08-10T00:24:16.377Z,100281.28
2022-08-10T00:27:50.119Z,100246.00
2022-08-10T00:29:32.739Z,100244.22
2022-08-10T00:32:00.946Z,100307.44
2022-08-10T00:34:31.172Z,100294.97
2022-08-10T00:37:00.569Z,100297.94
2022-08-10T00:39:34.495Z,100303.84
2022-08-10T00:42:09.857Z,100308.47
2022-08-10T00:44:40.773Z,100296.69
2022-08-10T00:47:17.508Z,100303.75
2022-08-10T00:49:58.718Z,100300.69
2022-08-10T00:52:29.494Z,100292.25
2022-08-10T00:54:59.488Z,100307.22
2022-08-10T00:57:27.825Z,100257.16
2022-08-10T00:59:59.504Z,100300.31
2022-08-10T01:02:31.137Z,100308.03
2022-08-10T01:05:04.204Z,100309.19
2022-08-10T01:08:19.911Z,100308.94
2022-08-10T01:11:05.742Z,100315.66
2022-08-10T01:14:18.063Z,100314.69
2022-08-10T01:17:19.463Z,100313.72
2022-08-10T01:20:04.640Z,100307.22
2022-08-10T01:22:35.907Z,100261.00
2022-08-10T01:26:11.033Z,100305.84
2022-08-10T01:29:01.583Z,100310.63
2022-08-10T01:31:40.715Z,100259.66
2022-08-10T01:34:20.574Z,100267.69
2022-08-10T01:37:05.582Z,100294.06
2022-08-10T01:39:45.444Z,100308.72
2022-08-10T01:42:20.034Z,100307.75
2022-08-10T01:44:55.218Z,100310.69
2022-08-10T01:47:49.214Z,100303.66
2022-08-10T01:50:53.199Z,100295.53
2022-08-10T01:53:57.083Z,100307.19
2022-08-10T01:56:29.468Z,100264.59
2022-08-10T01:59:09.988Z,100263.75
2022-08-10T02:01:48.084Z,100269.94
2022-08-10T02:04:19.802Z,100309.44
2022-08-10T02:06:53.356Z,100296.78
2022-08-10T02:09:29.096Z,100300.28
2022-08-10T02:12:08.568Z,100305.91
2022-08-10T02:14:46.806Z,100296.63
2022-08-10T02:18:00.827Z,100269.22
2022-08-10T02:20:24.126Z,100297.06
2022-08-10T02:23:12.902Z,100308.44
2022-08-10T02:25:43.943Z,100318.53
2022-08-10T02:28:30.732Z,100309.41
2022-08-10T02:31:14.652Z,100258.97
2022-08-10T02:33:57.366Z,100307.16
2022-08-10T02:36:31.683Z,100314.31
2022-08-10T02:39:04.352Z,100297.16
2022-08-10T02:45:15.317Z,100307.31
2022-08-10T02:45:36.724Z,100309.53
2022-08-10T02:48:16.517Z,100314.31
2022-08-10T02:50:56.756Z,100286.59
2022-08-10T02:53:54.523Z,100318.94
2022-08-10T02:56:41.440Z,100328.19
2022-08-10T02:59:21.616Z,100313.84
2022-08-10T03:01:54.534Z,100317.94
2022-08-10T03:04:55.064Z,100326.66
2022-08-10T03:07:43.766Z,100267.56
2022-08-10T03:10:25.187Z,100309.19
2022-08-10T03:13:04.360Z,100319.00
2022-08-10T03:15:36.509Z,100321.06
2022-08-10T03:18:06.252Z,100321.47
2022-08-10T03:20:40.347Z,100314.72
2022-08-10T03:23:20.818Z,100327.38
2022-08-10T03:25:54.820Z,100282.97
2022-08-10T03:28:33.921Z,100330.09
2022-08-10T03:31:03.338Z,100332.44
2022-08-10T03:33:38.854Z,100325.69
2022-08-10T03:36:41.229Z,100325.28
2022-08-10T03:38:56.463Z,100292.75
2022-08-10T03:41:38.867Z,100326.50
2022-08-10T03:44:09.447Z,100314.41
2022-08-10T03:46:42.091Z,100291.09
2022-08-10T03:49:11.738Z,100293.31
2022-08-10T03:51:40.831Z,100327.06
2022-08-10T03:54:09.822Z,100332.97
2022-08-10T03:56:40.129Z,100300.31
2022-08-10T03:59:15.087Z,100339.16
2022-08-10T04:02:44.211Z,100330.44
2022-08-10T04:04:33.949Z,100343.81
2022-08-10T04:07:06.569Z,100336.09
2022-08-10T04:09:53.503Z,100307.75
2022-08-10T04:12:25.827Z,100313.19
2022-08-10T04:14:54.104Z,100348.44
2022-08-10T04:17:59.474Z,100327.38
2022-08-10T04:20:20.680Z,100344.94
2022-08-10T04:22:53.447Z,100331.75
2022-08-10T04:25:24.318Z,100335.00
2022-08-10T04:27:53.861Z,100342.06
2022-08-10T04:30:22.465Z,100343.31
2022-08-10T04:32:55.476Z,100345.41
2022-08-10T04:35:26.324Z,100343.84
2022-08-10T04:37:56.251Z,100346.78
2022-08-10T04:40:29.113Z,100308.41
2022-08-10T04:43:12.825Z,100315.41
2022-08-10T04:45:49.927Z,100356.50
2022-08-10T04:48:40.181Z,100332.06
2022-08-10T04:51:17.526Z,100329.84
2022-08-10T04:54:03.747Z,100351.25
2022-08-10T04:56:39.753Z,100320.84
2022-08-10T04:59:10.399Z,100359.09
2022-08-10T05:02:28.219Z,100320.91
2022-08-10T05:04:35.921Z,100353.41
2022-08-10T05:07:18.560Z,100320.38
2022-08-10T05:10:02.312Z,100365.16
2022-08-10T05:12:42.317Z,100360.34
2022-08-10T05:15:13.391Z,100356.50
2022-08-10T05:18:08.173Z,100359.00
2022-08-10T05:20:31.648Z,100354.53
2022-08-10T05:22:59.746Z,100322.97
2022-08-10T05:25:27.649Z,100348.44
2022-08-10T05:27:57.778Z,100355.81
2022-08-10T05:30:26.590Z,100354.28
2022-08-10T05:32:56.657Z,100358.00
2022-08-10T05:35:52.872Z,100312.91
2022-08-10T05:38:20.701Z,100341.44
2022-08-10T05:40:50.811Z,100349.94
2022-08-10T05:43:22.281Z,100340.47
2022-08-10T05:46:19.687Z,100348.00
2022-08-10T05:48:56.159Z,100349.84
2022-08-10T05:51:27.808Z,100358.66
2022-08-10T05:54:00.910Z,100351.34
2022-08-10T05:56:53.198Z,100361.47
2022-08-10T06:00:11.221Z,100336.81
2022-08-10T06:02:34.981Z,100353.94
2022-08-10T06:05:19.306Z,100347.44
2022-08-10T06:08:16.242Z,100324.94
2022-08-10T06:12:23.179Z,100317.28
2022-08-10T06:13:59.874Z,100346.84
2022-08-10T06:16:44.129Z,100332.56
2022-08-10T06:19:15.025Z,100320.22
2022-08-10T06:22:00.898Z,100298.88
2022-08-10T06:24:50.954Z,100341.75
2022-08-10T06:27:34.719Z,100311.13
2022-08-10T06:30:04.282Z,100322.81
2022-08-10T06:32:51.534Z,100332.91
2022-08-10T06:35:20.633Z,100301.38
2022-08-10T06:37:51.891Z,100302.25
2022-08-10T06:40:21.424Z,100320.47
2022-08-10T06:42:50.538Z,100342.38
2022-08-10T06:45:27.053Z,100336.81
2022-08-10T06:48:14.399Z,100350.19
2022-08-10T06:50:58.826Z,100336.19
2022-08-10T06:53:53.727Z,100325.06
2022-08-10T06:56:36.635Z,100285.56
2022-08-10T06:59:37.469Z,100338.22
2022-08-10T07:02:10.660Z,100305.66
2022-08-10T07:04:44.671Z,100320.31
2022-08-10T07:07:20.559Z,100342.09
2022-08-10T07:09:51.416Z,100310.34
2022-08-10T07:12:22.057Z,100338.78
2022-08-10T07:14:53.462Z,100356.72
2022-08-10T07:17:25.903Z,100301.63
2022-08-10T07:19:59.611Z,100343.03
2022-08-10T07:23:08.651Z,100341.38
2022-08-10T07:25:28.510Z,100339.66
2022-08-10T07:28:01.860Z,100313.66
2022-08-10T07:30:36.390Z,100349.88
2022-08-10T07:33:06.514Z,100329.78
2022-08-10T07:35:42.835Z,100333.69
2022-08-10T07:38:25.252Z,100351.22
2022-08-10T07:40:54.995Z,100299.13
2022-08-10T07:43:27.097Z,100276.88
2022-08-10T07:45:59.321Z,100339.78
2022-08-10T07:48:32.957Z,100339.69
2022-08-10T07:51:03.357Z,100299.09
2022-08-10T07:53:40.216Z,100334.09
2022-08-10T07:56:21.284Z,100333.34
2022-08-10T07:59:10.968Z,100329.00
2022-08-10T08:01:50.798Z,100331.16
2022-08-10T08:04:24.371Z,100274.44
2022-08-10T08:06:53.794Z,100343.69
2022-08-10T08:09:24.181Z,100341.91
2022-08-10T08:11:54.041Z,100330.06
2022-08-10T08:14:22.918Z,100328.88
2022-08-10T08:16:53.562Z,100335.53
2022-08-10T08:19:37.908Z,100340.44
2022-08-10T08:24:07.380Z,100342.06
2022-08-10T08:25:00.647Z,100340.22
2022-08-10T08:27:29.810Z,100299.56
2022-08-10T08:29:59.544Z,100325.81
2022-08-10T08:32:33.286Z,100331.47
2022-08-10T08:35:10.363Z,100349.69
2022-08-10T08:38:33.912Z,100312.38
2022-08-10T08:40:35.364Z,100287.16
2022-08-10T08:43:21.651Z,100314.75
2022-08-10T08:46:28.852Z,100314.97
2022-08-10T08:50:05.519Z,100324.22
2022-08-10T08:52:37.293Z,100317.56
2022-08-10T08:56:03.520Z,100310.06
2022-08-10T08:58:52.331Z,100311.97
2022-08-10T09:01:42.148Z,100277.09
2022-08-10T09:04:59.367Z,100316.53
2022-08-10T09:08:02.082Z,100316.66
2022-08-10T09:11:00.537Z,100316.19
2022-08-10T09:13:56.829Z,100317.44
2022-08-10T09:16:57.742Z,100316.31
2022-08-10T09:19:52.548Z,100316.53
2022-08-10T09:22:48.169Z,100302.88
2022-08-10T09:25:42.050Z,100301.91
2022-08-10T09:28:20.168Z,100312.22
2022-08-10T09:31:22.459Z,100297.88
2022-08-10T09:36:20.093Z,100301.47
2022-08-10T09:37:45.347Z,100296.97
2022-08-10T09:40:59.727Z,100292.03
2022-08-10T09:44:04.697Z,100272.00
2022-08-10T09:47:13.437Z,100290.84
2022-08-10T09:50:08.658Z,100296.28
2022-08-10T09:53:06.518Z,100287.50
2022-08-10T09:56:17.051Z,100283.09
2022-08-10T09:58:39.262Z,100281.03
2022-08-10T10:02:02.727Z,100284.44
2022-08-10T10:04:40.297Z,100264.03
2022-08-10T10:07:15.498Z,100272.06
2022-08-10T10:10:08.651Z,100273.50
2022-08-10T10:13:08.426Z,100271.19
2022-08-10T10:16:04.058Z,100263.25
2022-08-10T10:19:18.750Z,100220.34
2022-08-10T10:22:38.358Z,100251.78
2022-08-10T10:25:21.053Z,100218.03
2022-08-10T10:28:13.931Z,100252.31
2022-08-10T10:31:17.510Z,100221.19
2022-08-10T10:34:08.733Z,100258.31
2022-08-10T10:36:41.623Z,100243.34
2022-08-10T10:39:14.291Z,100253.13
2022-08-10T10:42:03.237Z,100255.72
2022-08-10T10:45:14.886Z,100248.34
2022-08-10T10:48:17.696Z,100242.69
2022-08-10T10:51:10.647Z,100235.53
2022-08-10T10:54:36.408Z,100247.19
2022-08-10T10:57:59.494Z,100229.09
2022-08-10T11:00:24.320Z,100234.19
2022-08-10T11:03:12.458Z,100240.53
2022-08-10T11:06:09.819Z,100241.50
2022-08-10T11:08:47.164Z,100241.81
2022-08-10T11:12:01.842Z,100235.72
2022-08-10T11:14:29.082Z,100257.84
2022-08-10T11:17:22.176Z,100249.47
2022-08-10T11:20:28.557Z,100251.69
2022-08-10T11:23:28.775Z,100241.81
2022-08-10T11:26:17.265Z,100245.88
2022-08-10T11:29:01.235Z,100252.34
2022-08-10T11:31:51.409Z,100240.94
2022-08-10T11:34:49.062Z,100236.31
2022-08-10T11:38:33.084Z,100233.16
2022-08-10T11:42:09.402Z,100233.09
2022-08-10T11:44:21.511Z,100237.47
2022-08-10T11:47:22.711Z,100229.25
2022-08-10T11:50:01.083Z,100214.22
2022-08-10T11:52:58.577Z,100219.63
2022-08-10T11:55:34.387Z,100216.03
2022-08-10T11:58:30.584Z,100203.63
2022-08-10T12:01:08.181Z,100193.88
2022-08-10T12:03:40.344Z,100214.47
2022-08-10T12:06:13.877Z,100175.13
2022-08-10T12:10:03.617Z,100206.75
2022-08-10T12:11:36.203Z,100202.16
2022-08-10T12:14:21.753Z,100194.25
2022-08-10T12:17:08.797Z,100212.97
2022-08-10T12:20:02.176Z,100200.94
2022-08-10T12:22:50.709Z,100171.88
2022-08-10T12:25:55.783Z,100177.97
2022-08-10T12:28:50.280Z,100144.84
2022-08-10T12:32:06.947Z,100186.94
2022-08-10T12:35:26.221Z,100179.06
2022-08-10T12:38:57.673Z,100182.16
2022-08-10T12:41:45.658Z,100177.81
2022-08-10T12:44:23.425Z,100143.94
2022-08-10T12:47:45.110Z,100151.31
2022-08-10T12:50:32.840Z,100168.31
2022-08-10T12:53:29.729Z,100170.75
2022-08-10T12:55:59.169Z,100162.09
2022-08-10T12:58:59.777Z,100166.53
2022-08-10T13:01:19.119Z,100168.91
2022-08-10T13:04:21.856Z,100147.09
2022-08-10T13:06:46.652Z,100171.06
2022-08-10T13:09:20.716Z,100163.53
2022-08-10T13:12:38.580Z,100158.97
2022-08-10T13:15:49.304Z,100152.94
2022-08-10T13:18:29.593Z,100127.19
2022-08-10T13:21:20.510Z,100162.81
2022-08-10T13:24:09.038Z,100114.88
2022-08-10T13:26:49.476Z,100134.28
2022-08-10T13:30:04.049Z,100105.47
2022-08-10T13:32:34.346Z,100096.56
2022-08-10T13:35:14.736Z,100134.78
2022-08-10T13:37:47.051Z,100099.47
2022-08-10T13:40:20.320Z,100123.66
2022-08-10T13:42:51.915Z,100122.50
2022-08-10T13:45:25.148Z,100092.16
2022-08-10T13:48:14.471Z,100106.84
2022-08-10T13:50:45.263Z,100079.78
2022-08-10T13:53:17.831Z,100085.19
2022-08-10T13:55:57.190Z,100091.03
2022-08-10T13:58:39.832Z,100118.25
2022-08-10T14:01:21.496Z,100106.56
2022-08-10T14:03:53.245Z,100077.72
2022-08-10T14:06:29.584Z,100091.88
2022-08-10T14:09:09.704Z,100086.53
2022-08-10T14:11:41.827Z,100063.19
2022-08-10T14:14:19.393Z,100109.50
2022-08-10T14:16:49.997Z,100054.66
2022-08-10T14:19:27.794Z,100078.41
2022-08-10T14:21:58.039Z,100108.59
2022-08-10T14:24:29.428Z,100100.38
2022-08-10T14:27:05.530Z,100106.78
2022-08-10T14:29:47.506Z,100104.13
2022-08-10T14:32:24.745Z,100114.66
2022-08-10T14:36:16.738Z,100102.97
2022-08-10T14:38:00.455Z,100074.38
2022-08-10T14:40:39.106Z,100065.06
2022-08-10T14:43:28.087Z,100076.41
2022-08-10T14:46:04.088Z,100095.38
2022-08-10T14:48:43.659Z,100068.19
2022-08-10T14:51:18.021Z,100096.06
2022-08-10T14:54:00.995Z,100094.31
2022-08-10T14:56:33.623Z,100057.75
2022-08-10T14:59:07.492Z,100104.94
2022-08-10T15:02:38.568Z,100053.00
2022-08-10T15:04:35.327Z,100090.19
2022-08-10T15:07:28.220Z,100082.66
2022-08-10T15:10:00.765Z,100093.53
2022-08-10T15:12:39.215Z,100059.16
2022-08-10T15:15:17.964Z,100073.97
2022-08-10T15:17:58.929Z,100081.72
2022-08-10T15:20:30.149Z,100051.06
2022-08-10T15:23:31.095Z,100086.44
2022-08-10T15:26:10.777Z,100076.41
2022-08-10T15:29:22.385Z,100058.22
2022-08-10T15:31:56.701Z,100082.16
2022-08-10T15:34:44.893Z,100081.44
2022-08-10T15:37:40.821Z,100084.97
2022-08-10T15:40:24.244Z,100073.75
2022-08-10T15:43:05.488Z,100078.47
2022-08-10T15:46:18.887Z,100077.06
2022-08-10T15:48:59.924Z,100045.13
2022-08-10T15:51:55.144Z,100079.06
2022-08-10T15:54:38.476Z,100043.44
2022-08-10T15:57:13.014Z,100044.91
2022-08-10T15:59:46.704Z,100089.41
2022-08-10T16:02:21.121Z,100052.84
2022-08-10T16:05:40.740Z,100086.50
2022-08-10T16:08:27.856Z,100090.28
2022-08-10T16:11:03.700Z,100096.78
2022-08-10T16:13:50.684Z,100097.75
2022-08-10T16:16:36.537Z,100078.44
2022-08-10T16:19:13.698Z,100106.50
2022-08-10T16:22:35.960Z,100078.81
2022-08-10T16:25:10.793Z,100098.03
2022-08-10T16:27:40.869Z,100109.22
2022-08-10T16:30:09.662Z,100105.84
2022-08-10T16:32:39.790Z,100104.50
2022-08-10T16:35:11.325Z,100104.06
2022-08-10T16:37:58.162Z,100101.47
2022-08-10T16:40:30.268Z,100087.47
2022-08-10T16:43:00.040Z,100098.81
